sensor_id;sensor_type;location;lat;lon;timestamp;pressure;altitude;pressure_sealevel;temperature;humidity
40850;BME280;26571;41.610;25.380;2023-03-25T00:01:20;98133.13;;;9.45;nan
40850;BME280;26571;41.610;25.380;2023-03-25T00:03:49;98134.75;;;9.38;nan
40850;BME280;26571;41.610;25.380;2023-03-25T00:06:17;98135.75;;;9.28;nan
40850;BME280;26571;41.610;25.380;2023-03-25T00:08:43;98134.09;;;9.36;nan
40850;BME280;26571;41.610;25.380;2023-03-25T00:11:08;98123.44;;;9.13;nan
40850;BME280;26571;41.610;25.380;2023-03-25T00:13:33;98125.41;;;9.27;nan
40850;BME280;26571;41.610;25.380;2023-03-25T00:15:59;98126.22;;;9.19;nan
40850;BME280;26571;41.610;25.380;2023-03-25T00:18:26;98121.97;;;9.26;nan
40850;BME280;26571;41.610;25.380;2023-03-25T00:20:53;98130.47;;;9.28;nan
40850;BME280;26571;41.610;25.380;2023-03-25T00:23:20;98120.47;;;9.24;nan
40850;BME280;26571;41.610;25.380;2023-03-25T00:25:45;98114.09;;;9.26;nan
40850;BME280;26571;41.610;25.380;2023-03-25T00:28:11;98117.69;;;9.25;nan
40850;BME280;26571;41.610;25.380;2023-03-25T00:30:37;98120.31;;;9.17;nan
40850;BME280;26571;41.610;25.380;2023-03-25T00:33:03;98117.06;;;9.15;nan
40850;BME280;26571;41.610;25.380;2023-03-25T00:35:28;98110.81;;;9.08;nan
40850;BME280;26571;41.610;25.380;2023-03-25T00:37:54;98113.25;;;9.10;nan
40850;BME280;26571;41.610;25.380;2023-03-25T00:40:23;98115.06;;;8.93;nan
40850;BME280;26571;41.610;25.380;2023-03-25T00:42:49;98115.72;;;8.78;nan
40850;BME280;26571;41.610;25.380;2023-03-25T00:45:15;98123.72;;;8.69;nan
40850;BME280;26571;41.610;25.380;2023-03-25T00:47:40;98117.66;;;8.60;nan
40850;BME280;26571;41.610;25.380;2023-03-25T00:50:06;98107.16;;;8.60;nan
40850;BME280;26571;41.610;25.380;2023-03-25T00:52:31;98100.63;;;8.56;nan
40850;BME280;26571;41.610;25.380;2023-03-25T00:54:56;98107.81;;;8.54;nan
40850;BME280;26571;41.610;25.380;2023-03-25T00:57:22;98109.13;;;8.58;nan
40850;BME280;26571;41.610;25.380;2023-03-25T00:59:47;98098.13;;;8.46;nan
40850;BME280;26571;41.610;25.380;2023-03-25T01:02:12;98102.91;;;8.51;nan
40850;BME280;26571;41.610;25.380;2023-03-25T01:04:38;98102.06;;;8.42;nan
40850;BME280;26571;41.610;25.380;2023-03-25T01:07:04;98092.06;;;8.46;nan
40850;BME280;26571;41.610;25.380;2023-03-25T01:09:29;98091.72;;;8.49;nan
40850;BME280;26571;41.610;25.380;2023-03-25T01:11:55;98088.94;;;8.42;nan
40850;BME280;26571;41.610;25.380;2023-03-25T01:14:21;98080.25;;;8.42;nan
40850;BME280;26571;41.610;25.380;2023-03-25T01:16:48;98077.63;;;8.42;nan
40850;BME280;26571;41.610;25.380;2023-03-25T01:19:13;98071.72;;;8.48;nan
40850;BME280;26571;41.610;25.380;2023-03-25T01:21:39;98073.69;;;8.54;nan
40850;BME280;26571;41.610;25.380;2023-03-25T01:24:05;98063.38;;;8.52;nan
40850;BME280;26571;41.610;25.380;2023-03-25T01:26:32;98059.28;;;8.58;nan
40850;BME280;26571;41.610;25.380;2023-03-25T01:28:57;98060.94;;;8.51;nan
40850;BME280;26571;41.610;25.380;2023-03-25T01:31:22;98057.47;;;8.50;nan
40850;BME280;26571;41.610;25.380;2023-03-25T01:33:50;98057.31;;;8.52;nan
40850;BME280;26571;41.610;25.380;2023-03-25T01:36:15;98062.88;;;8.49;nan
40850;BME280;26571;41.610;25.380;2023-03-25T01:38:41;98058.94;;;8.45;nan
40850;BME280;26571;41.610;25.380;2023-03-25T01:41:06;98065.50;;;8.41;nan
40850;BME280;26571;41.610;25.380;2023-03-25T01:43:32;98064.34;;;8.43;nan
40850;BME280;26571;41.610;25.380;2023-03-25T01:45:58;98063.53;;;8.51;nan
40850;BME280;26571;41.610;25.380;2023-03-25T01:48:28;98055.19;;;8.56;nan
40850;BME280;26571;41.610;25.380;2023-03-25T01:51:01;98051.41;;;8.42;nan
40850;BME280;26571;41.610;25.380;2023-03-25T01:53:29;98044.84;;;8.38;nan
40850;BME280;26571;41.610;25.380;2023-03-25T01:55:56;98053.69;;;8.37;nan
40850;BME280;26571;41.610;25.380;2023-03-25T01:58:23;98049.53;;;8.34;nan
40850;BME280;26571;41.610;25.380;2023-03-25T02:00:51;98045.75;;;8.28;nan
40850;BME280;26571;41.610;25.380;2023-03-25T02:03:19;98039.53;;;8.21;nan
40850;BME280;26571;41.610;25.380;2023-03-25T02:05:47;98040.00;;;8.25;nan
40850;BME280;26571;41.610;25.380;2023-03-25T02:08:14;98039.22;;;8.33;nan
40850;BME280;26571;41.610;25.380;2023-03-25T02:10:40;98028.41;;;8.36;nan
40850;BME280;26571;41.610;25.380;2023-03-25T02:13:08;98023.06;;;7.87;nan
40850;BME280;26571;41.610;25.380;2023-03-25T02:18:27;98033.06;;;7.49;nan
40850;BME280;26571;41.610;25.380;2023-03-25T02:22:00;98029.44;;;7.50;nan
40850;BME280;26571;41.610;25.380;2023-03-25T02:24:01;98035.00;;;7.47;nan
40850;BME280;26571;41.610;25.380;2023-03-25T02:32:16;98032.81;;;7.68;nan
40850;BME280;26571;41.610;25.380;2023-03-25T02:40:17;98018.09;;;7.75;nan
40850;BME280;26571;41.610;25.380;2023-03-25T02:45:31;98009.06;;;7.70;nan
40850;BME280;26571;41.610;25.380;2023-03-25T02:47:59;98018.72;;;7.69;nan
40850;BME280;26571;41.610;25.380;2023-03-25T02:50:28;98016.28;;;7.68;nan
40850;BME280;26571;41.610;25.380;2023-03-25T02:52:56;98018.19;;;7.58;nan
40850;BME280;26571;41.610;25.380;2023-03-25T02:55:23;98010.84;;;7.61;nan
40850;BME280;26571;41.610;25.380;2023-03-25T02:57:54;98022.91;;;7.54;nan
40850;BME280;26571;41.610;25.380;2023-03-25T03:00:27;98008.66;;;7.48;nan
40850;BME280;26571;41.610;25.380;2023-03-25T03:02:55;98004.75;;;7.53;nan
40850;BME280;26571;41.610;25.380;2023-03-25T03:07:51;97992.16;;;7.56;nan
40850;BME280;26571;41.610;25.380;2023-03-25T03:12:57;97992.16;;;7.56;nan
40850;BME280;26571;41.610;25.380;2023-03-25T03:15:38;97998.41;;;7.63;nan
40850;BME280;26571;41.610;25.380;2023-03-25T03:18:22;97998.22;;;7.57;nan
40850;BME280;26571;41.610;25.380;2023-03-25T03:21:44;98001.19;;;7.62;nan
40850;BME280;26571;41.610;25.380;2023-03-25T03:26:30;98012.13;;;7.57;nan
40850;BME280;26571;41.610;25.380;2023-03-25T03:32:09;98006.34;;;7.45;nan
40850;BME280;26571;41.610;25.380;2023-03-25T03:37:11;98010.69;;;7.29;nan
40850;BME280;26571;41.610;25.380;2023-03-25T03:39:38;98014.59;;;7.24;nan
40850;BME280;26571;41.610;25.380;2023-03-25T03:42:11;98019.81;;;7.24;nan
40850;BME280;26571;41.610;25.380;2023-03-25T03:44:39;98017.25;;;7.33;nan
40850;BME280;26571;41.610;25.380;2023-03-25T03:47:07;98021.56;;;7.16;nan
40850;BME280;26571;41.610;25.380;2023-03-25T03:49:40;98016.81;;;7.11;nan
40850;BME280;26571;41.610;25.380;2023-03-25T03:52:14;98012.91;;;7.15;nan
40850;BME280;26571;41.610;25.380;2023-03-25T03:54:48;98011.97;;;7.24;nan
40850;BME280;26571;41.610;25.380;2023-03-25T03:57:25;98012.78;;;7.25;nan
40850;BME280;26571;41.610;25.380;2023-03-25T04:02:24;98010.97;;;7.17;nan
40850;BME280;26571;41.610;25.380;2023-03-25T04:04:52;98019.19;;;7.22;nan
40850;BME280;26571;41.610;25.380;2023-03-25T04:07:21;98019.53;;;7.28;nan
40850;BME280;26571;41.610;25.380;2023-03-25T04:09:52;98016.22;;;7.25;nan
40850;BME280;26571;41.610;25.380;2023-03-25T04:12:28;98008.94;;;7.37;nan
40850;BME280;26571;41.610;25.380;2023-03-25T04:14:54;98008.13;;;7.37;nan
40850;BME280;26571;41.610;25.380;2023-03-25T04:17:21;98007.91;;;7.30;nan
40850;BME280;26571;41.610;25.380;2023-03-25T04:19:46;98006.16;;;7.39;nan
40850;BME280;26571;41.610;25.380;2023-03-25T04:22:13;98005.66;;;7.35;nan
40850;BME280;26571;41.610;25.380;2023-03-25T04:24:39;98008.94;;;7.37;nan
40850;BME280;26571;41.610;25.380;2023-03-25T04:27:05;98005.53;;;7.45;nan
40850;BME280;26571;41.610;25.380;2023-03-25T04:29:31;98004.72;;;7.44;nan
40850;BME280;26571;41.610;25.380;2023-03-25T04:31:56;98002.94;;;7.53;nan
40850;BME280;26571;41.610;25.380;2023-03-25T04:34:22;98003.78;;;7.54;nan
40850;BME280;26571;41.610;25.380;2023-03-25T04:36:47;98002.09;;;7.44;nan
40850;BME280;26571;41.610;25.380;2023-03-25T04:39:14;98006.22;;;7.47;nan
40850;BME280;26571;41.610;25.380;2023-03-25T04:41:41;98003.59;;;7.47;nan
40850;BME280;26571;41.610;25.380;2023-03-25T04:44:08;98000.63;;;7.50;nan
40850;BME280;26571;41.610;25.380;2023-03-25T04:46:33;97999.03;;;7.57;nan
40850;BME280;26571;41.610;25.380;2023-03-25T04:49:00;97996.44;;;7.65;nan
40850;BME280;26571;41.610;25.380;2023-03-25T04:51:27;98001.66;;;7.57;nan
40850;BME280;26571;41.610;25.380;2023-03-25T04:53:54;97999.97;;;7.98;nan
40850;BME280;26571;41.610;25.380;2023-03-25T04:56:19;97992.66;;;9.00;nan
40850;BME280;26571;41.610;25.380;2023-03-25T04:58:45;97988.31;;;10.02;nan
40850;BME280;26571;41.610;25.380;2023-03-25T05:01:18;97996.06;;;11.39;nan
40850;BME280;26571;41.610;25.380;2023-03-25T05:03:44;98005.69;;;12.99;nan
40850;BME280;26571;41.610;25.380;2023-03-25T05:06:14;97998.94;;;14.00;nan
40850;BME280;26571;41.610;25.380;2023-03-25T05:08:39;98008.47;;;14.69;nan
40850;BME280;26571;41.610;25.380;2023-03-25T05:11:05;98010.94;;;15.17;nan
40850;BME280;26571;41.610;25.380;2023-03-25T05:13:30;98001.88;;;16.09;nan
40850;BME280;26571;41.610;25.380;2023-03-25T05:15:56;98000.34;;;17.15;nan
40850;BME280;26571;41.610;25.380;2023-03-25T05:18:21;97989.13;;;18.04;nan
40850;BME280;26571;41.610;25.380;2023-03-25T05:20:46;97991.84;;;18.88;nan
40850;BME280;26571;41.610;25.380;2023-03-25T05:23:14;97995.66;;;19.39;nan
40850;BME280;26571;41.610;25.380;2023-03-25T05:25:45;97992.69;;;20.28;nan
40850;BME280;26571;41.610;25.380;2023-03-25T05:28:11;97992.69;;;21.24;nan
40850;BME280;26571;41.610;25.380;2023-03-25T05:30:38;97994.50;;;22.23;nan
40850;BME280;26571;41.610;25.380;2023-03-25T05:33:05;97992.28;;;22.68;nan
40850;BME280;26571;41.610;25.380;2023-03-25T05:35:31;97993.28;;;22.89;nan
40850;BME280;26571;41.610;25.380;2023-03-25T05:37:56;97991.06;;;23.61;nan
40850;BME280;26571;41.610;25.380;2023-03-25T05:40:21;97986.72;;;24.07;nan
40850;BME280;26571;41.610;25.380;2023-03-25T05:42:47;97986.84;;;24.48;nan
40850;BME280;26571;41.610;25.380;2023-03-25T05:45:15;97988.47;;;24.90;nan
40850;BME280;26571;41.610;25.380;2023-03-25T05:47:41;97986.56;;;24.95;nan
40850;BME280;26571;41.610;25.380;2023-03-25T05:50:07;97980.66;;;24.78;nan
40850;BME280;26571;41.610;25.380;2023-03-25T05:52:32;97979.66;;;23.91;nan
40850;BME280;26571;41.610;25.380;2023-03-25T05:54:58;97980.19;;;23.83;nan
40850;BME280;26571;41.610;25.380;2023-03-25T05:57:23;97984.63;;;24.30;nan
40850;BME280;26571;41.610;25.380;2023-03-25T05:59:48;97985.97;;;24.27;nan
40850;BME280;26571;41.610;25.380;2023-03-25T06:02:14;97974.78;;;23.78;nan
40850;BME280;26571;41.610;25.380;2023-03-25T06:04:40;97973.84;;;24.30;nan
40850;BME280;26571;41.610;25.380;2023-03-25T06:07:07;97977.34;;;24.35;nan
40850;BME280;26571;41.610;25.380;2023-03-25T06:09:53;97977.41;;;24.81;nan
40850;BME280;26571;41.610;25.380;2023-03-25T06:12:19;97971.19;;;25.47;nan
40850;BME280;26571;41.610;25.380;2023-03-25T06:14:48;97971.09;;;25.77;nan
40850;BME280;26571;41.610;25.380;2023-03-25T06:17:18;97968.97;;;26.24;nan
40850;BME280;26571;41.610;25.380;2023-03-25T06:19:44;97970.34;;;26.21;nan
40850;BME280;26571;41.610;25.380;2023-03-25T06:22:10;97971.66;;;25.59;nan
40850;BME280;26571;41.610;25.380;2023-03-25T06:24:39;97979.75;;;25.59;nan
40850;BME280;26571;41.610;25.380;2023-03-25T06:27:06;97981.31;;;25.81;nan
40850;BME280;26571;41.610;25.380;2023-03-25T06:29:32;97976.22;;;26.28;nan
40850;BME280;26571;41.610;25.380;2023-03-25T06:31:58;97975.94;;;25.65;nan
40850;BME280;26571;41.610;25.380;2023-03-25T06:34:23;97984.72;;;25.21;nan
40850;BME280;26571;41.610;25.380;2023-03-25T06:36:48;97979.78;;;25.49;nan
40850;BME280;26571;41.610;25.380;2023-03-25T06:39:14;97975.41;;;25.68;nan
40850;BME280;26571;41.610;25.380;2023-03-25T06:41:39;97965.28;;;26.04;nan
40850;BME280;26571;41.610;25.380;2023-03-25T06:44:05;97971.94;;;26.67;nan
40850;BME280;26571;41.610;25.380;2023-03-25T06:46:30;97964.34;;;26.29;nan
40850;BME280;26571;41.610;25.380;2023-03-25T06:48:55;97969.94;;;25.94;nan
40850;BME280;26571;41.610;25.380;2023-03-25T06:51:20;97971.22;;;25.26;nan
40850;BME280;26571;41.610;25.380;2023-03-25T06:53:46;97978.31;;;23.88;nan
40850;BME280;26571;41.610;25.380;2023-03-25T06:56:12;97973.63;;;22.84;nan
40850;BME280;26571;41.610;25.380;2023-03-25T06:58:37;97980.81;;;21.53;nan
40850;BME280;26571;41.610;25.380;2023-03-25T07:01:03;97992.47;;;20.75;nan
40850;BME280;26571;41.610;25.380;2023-03-25T07:03:31;97978.00;;;19.73;nan
40850;BME280;26571;41.610;25.380;2023-03-25T07:05:56;97977.91;;;19.33;nan
40850;BME280;26571;41.610;25.380;2023-03-25T07:08:21;97981.00;;;19.77;nan
40850;BME280;26571;41.610;25.380;2023-03-25T07:10:46;97973.41;;;19.97;nan
40850;BME280;26571;41.610;25.380;2023-03-25T07:13:12;97976.91;;;20.43;nan
40850;BME280;26571;41.610;25.380;2023-03-25T07:15:37;97967.81;;;20.89;nan
40850;BME280;26571;41.610;25.380;2023-03-25T07:18:03;97969.16;;;21.26;nan
40850;BME280;26571;41.610;25.380;2023-03-25T07:20:28;97958.94;;;21.61;nan
40850;BME280;26571;41.610;25.380;2023-03-25T07:22:53;97956.34;;;21.88;nan
40850;BME280;26571;41.610;25.380;2023-03-25T07:25:19;97956.97;;;21.74;nan
40850;BME280;26571;41.610;25.380;2023-03-25T07:27:44;97948.16;;;22.00;nan
40850;BME280;26571;41.610;25.380;2023-03-25T07:30:10;97945.78;;;21.82;nan
40850;BME280;26571;41.610;25.380;2023-03-25T07:32:35;97945.34;;;21.68;nan
40850;BME280;26571;41.610;25.380;2023-03-25T07:35:00;97949.09;;;21.45;nan
40850;BME280;26571;41.610;25.380;2023-03-25T07:37:26;97957.50;;;20.98;nan
40850;BME280;26571;41.610;25.380;2023-03-25T07:39:51;97958.78;;;20.45;nan
40850;BME280;26571;41.610;25.380;2023-03-25T07:42:16;97956.94;;;20.17;nan
40850;BME280;26571;41.610;25.380;2023-03-25T07:44:41;97954.25;;;19.88;nan
40850;BME280;26571;41.610;25.380;2023-03-25T07:47:07;97951.84;;;19.87;nan
40850;BME280;26571;41.610;25.380;2023-03-25T07:49:32;97952.91;;;20.14;nan
40850;BME280;26571;41.610;25.380;2023-03-25T07:51:57;97952.22;;;20.07;nan
40850;BME280;26571;41.610;25.380;2023-03-25T07:54:23;97950.16;;;20.43;nan
40850;BME280;26571;41.610;25.380;2023-03-25T07:56:48;97947.97;;;20.69;nan
40850;BME280;26571;41.610;25.380;2023-03-25T07:59:14;97944.78;;;20.72;nan
40850;BME280;26571;41.610;25.380;2023-03-25T08:01:40;97939.84;;;20.80;nan
40850;BME280;26571;41.610;25.380;2023-03-25T08:04:05;97942.28;;;20.82;nan
40850;BME280;26571;41.610;25.380;2023-03-25T08:06:30;97944.00;;;20.26;nan
40850;BME280;26571;41.610;25.380;2023-03-25T08:08:56;97941.72;;;20.18;nan
40850;BME280;26571;41.610;25.380;2023-03-25T08:11:21;97927.59;;;19.77;nan
40850;BME280;26571;41.610;25.380;2023-03-25T08:13:46;97932.94;;;20.05;nan
40850;BME280;26571;41.610;25.380;2023-03-25T08:16:12;97926.69;;;20.45;nan
40850;BME280;26571;41.610;25.380;2023-03-25T08:18:38;97928.56;;;20.45;nan
40850;BME280;26571;41.610;25.380;2023-03-25T08:21:03;97934.47;;;20.30;nan
40850;BME280;26571;41.610;25.380;2023-03-25T08:23:28;97922.88;;;20.24;nan
40850;BME280;26571;41.610;25.380;2023-03-25T08:25:53;97923.63;;;20.08;nan
40850;BME280;26571;41.610;25.380;2023-03-25T08:28:19;97920.78;;;19.98;nan
40850;BME280;26571;41.610;25.380;2023-03-25T08:30:51;97916.91;;;20.05;nan
40850;BME280;26571;41.610;25.380;2023-03-25T08:33:20;97912.38;;;20.06;nan
40850;BME280;26571;41.610;25.380;2023-03-25T08:35:46;97907.38;;;20.09;nan
40850;BME280;26571;41.610;25.380;2023-03-25T08:38:11;97897.66;;;20.37;nan
40850;BME280;26571;41.610;25.380;2023-03-25T08:40:37;97897.47;;;20.55;nan
40850;BME280;26571;41.610;25.380;2023-03-25T08:43:03;97895.50;;;20.68;nan
40850;BME280;26571;41.610;25.380;2023-03-25T08:45:28;97893.06;;;21.00;nan
40850;BME280;26571;41.610;25.380;2023-03-25T08:47:55;97894.75;;;21.28;nan
40850;BME280;26571;41.610;25.380;2023-03-25T08:50:21;97891.50;;;21.64;nan
40850;BME280;26571;41.610;25.380;2023-03-25T08:52:46;97890.38;;;21.87;nan
40850;BME280;26571;41.610;25.380;2023-03-25T08:55:12;97891.38;;;21.54;nan
40850;BME280;26571;41.610;25.380;2023-03-25T08:57:40;97883.06;;;21.56;nan
40850;BME280;26571;41.610;25.380;2023-03-25T09:00:06;97881.78;;;21.58;nan
40850;BME280;26571;41.610;25.380;2023-03-25T09:02:38;97867.72;;;21.07;nan
40850;BME280;26571;41.610;25.380;2023-03-25T09:05:03;97869.50;;;21.19;nan
40850;BME280;26571;41.610;25.380;2023-03-25T09:07:29;97875.53;;;21.53;nan
40850;BME280;26571;41.610;25.380;2023-03-25T09:09:55;97859.66;;;21.95;nan
40850;BME280;26571;41.610;25.380;2023-03-25T09:12:20;97862.84;;;22.19;nan
40850;BME280;26571;41.610;25.380;2023-03-25T09:14:45;97855.44;;;22.31;nan
40850;BME280;26571;41.610;25.380;2023-03-25T09:17:10;97856.41;;;22.57;nan
40850;BME280;26571;41.610;25.380;2023-03-25T09:19:36;97853.63;;;22.42;nan
40850;BME280;26571;41.610;25.380;2023-03-25T09:22:02;97848.59;;;22.51;nan
40850;BME280;26571;41.610;25.380;2023-03-25T09:24:27;97849.44;;;22.56;nan
40850;BME280;26571;41.610;25.380;2023-03-25T09:26:52;97843.81;;;22.53;nan
40850;BME280;26571;41.610;25.380;2023-03-25T09:29:17;97850.53;;;22.55;nan
40850;BME280;26571;41.610;25.380;2023-03-25T09:31:43;97848.19;;;22.69;nan
40850;BME280;26571;41.610;25.380;2023-03-25T09:34:08;97837.03;;;22.45;nan
40850;BME280;26571;41.610;25.380;2023-03-25T09:36:33;97833.78;;;22.80;nan
40850;BME280;26571;41.610;25.380;2023-03-25T09:38:58;97837.28;;;22.86;nan
40850;BME280;26571;41.610;25.380;2023-03-25T09:44:08;97824.41;;;23.45;nan
40850;BME280;26571;41.610;25.380;2023-03-25T09:46:37;97823.56;;;23.35;nan
40850;BME280;26571;41.610;25.380;2023-03-25T09:49:03;97814.16;;;22.75;nan
40850;BME280;26571;41.610;25.380;2023-03-25T09:51:32;97812.75;;;22.25;nan
40850;BME280;26571;41.610;25.380;2023-03-25T09:56:26;97803.66;;;21.99;nan
40850;BME280;26571;41.610;25.380;2023-03-25T09:58:57;97803.72;;;22.04;nan
40850;BME280;26571;41.610;25.380;2023-03-25T10:09:37;97785.94;;;23.19;nan
40850;BME280;26571;41.610;25.380;2023-03-25T10:12:26;97787.94;;;23.65;nan
40850;BME280;26571;41.610;25.380;2023-03-25T10:15:11;97782.34;;;23.92;nan
40850;BME280;26571;41.610;25.380;2023-03-25T10:25:21;97764.84;;;23.79;nan
40850;BME280;26571;41.610;25.380;2023-03-25T10:27:50;97756.47;;;23.60;nan
40850;BME280;26571;41.610;25.380;2023-03-25T10:30:17;97753.03;;;23.85;nan
40850;BME280;26571;41.610;25.380;2023-03-25T10:32:47;97740.38;;;23.76;nan
40850;BME280;26571;41.610;25.380;2023-03-25T10:35:16;97740.16;;;23.82;nan
40850;BME280;26571;41.610;25.380;2023-03-25T10:37:42;97732.06;;;23.87;nan
40850;BME280;26571;41.610;25.380;2023-03-25T10:40:22;97726.94;;;24.06;nan
40850;BME280;26571;41.610;25.380;2023-03-25T10:42:57;97727.47;;;24.39;nan
40850;BME280;26571;41.610;25.380;2023-03-25T10:45:25;97711.59;;;24.37;nan
40850;BME280;26571;41.610;25.380;2023-03-25T10:47:51;97712.38;;;24.33;nan
40850;BME280;26571;41.610;25.380;2023-03-25T10:50:17;97710.50;;;24.43;nan
40850;BME280;26571;41.610;25.380;2023-03-25T10:52:44;97712.06;;;24.55;nan
40850;BME280;26571;41.610;25.380;2023-03-25T10:55:25;97706.16;;;24.58;nan
40850;BME280;26571;41.610;25.380;2023-03-25T10:57:52;97698.28;;;24.77;nan
40850;BME280;26571;41.610;25.380;2023-03-25T11:00:18;97682.88;;;24.87;nan
40850;BME280;26571;41.610;25.380;2023-03-25T11:02:44;97689.41;;;24.71;nan
40850;BME280;26571;41.610;25.380;2023-03-25T11:05:11;97682.75;;;24.53;nan
40850;BME280;26571;41.610;25.380;2023-03-25T11:07:45;97670.69;;;24.25;nan
40850;BME280;26571;41.610;25.380;2023-03-25T11:12:38;97670.50;;;23.65;nan
40850;BME280;26571;41.610;25.380;2023-03-25T11:15:04;97673.72;;;23.52;nan
40850;BME280;26571;41.610;25.380;2023-03-25T11:17:29;97669.41;;;23.36;nan
40850;BME280;26571;41.610;25.380;2023-03-25T11:19:55;97666.72;;;23.51;nan
40850;BME280;26571;41.610;25.380;2023-03-25T11:22:24;97653.28;;;23.61;nan
40850;BME280;26571;41.610;25.380;2023-03-25T11:24:51;97657.63;;;23.72;nan
40850;BME280;26571;41.610;25.380;2023-03-25T11:27:23;97645.75;;;23.94;nan
40850;BME280;26571;41.610;25.380;2023-03-25T11:29:52;97654.59;;;24.10;nan
40850;BME280;26571;41.610;25.380;2023-03-25T11:32:23;97641.09;;;24.25;nan
40850;BME280;26571;41.610;25.380;2023-03-25T11:34:49;97636.50;;;24.31;nan
40850;BME280;26571;41.610;25.380;2023-03-25T11:37:22;97627.91;;;24.39;nan
40850;BME280;26571;41.610;25.380;2023-03-25T11:39:51;97623.47;;;23.88;nan
40850;BME280;26571;41.610;25.380;2023-03-25T11:44:50;97619.91;;;24.13;nan
40850;BME280;26571;41.610;25.380;2023-03-25T11:47:19;97617.66;;;24.46;nan
40850;BME280;26571;41.610;25.380;2023-03-25T11:49:46;97609.41;;;24.82;nan
40850;BME280;26571;41.610;25.380;2023-03-25T11:52:14;97608.47;;;25.01;nan
40850;BME280;26571;41.610;25.380;2023-03-25T11:54:41;97616.31;;;24.98;nan
40850;BME280;26571;41.610;25.380;2023-03-25T11:57:11;97609.00;;;25.04;nan
40850;BME280;26571;41.610;25.380;2023-03-25T11:59:42;97597.66;;;25.12;nan
40850;BME280;26571;41.610;25.380;2023-03-25T12:02:16;97594.06;;;25.26;nan
40850;BME280;26571;41.610;25.380;2023-03-25T12:05:00;97591.75;;;25.44;nan
40850;BME280;26571;41.610;25.380;2023-03-25T12:07:25;97593.28;;;25.50;nan
40850;BME280;26571;41.610;25.380;2023-03-25T12:09:58;97595.22;;;25.44;nan
40850;BME280;26571;41.610;25.380;2023-03-25T12:12:46;97590.88;;;25.48;nan
40850;BME280;26571;41.610;25.380;2023-03-25T12:15:25;97584.84;;;25.62;nan
40850;BME280;26571;41.610;25.380;2023-03-25T12:18:02;97574.06;;;25.62;nan
40850;BME280;26571;41.610;25.380;2023-03-25T12:33:23;97553.41;;;24.84;nan
40850;BME280;26571;41.610;25.380;2023-03-25T12:38:38;97562.13;;;24.65;nan
40850;BME280;26571;41.610;25.380;2023-03-25T12:43:46;97551.78;;;24.38;nan
40850;BME280;26571;41.610;25.380;2023-03-25T12:51:50;97538.75;;;23.91;nan
40850;BME280;26571;41.610;25.380;2023-03-25T12:54:37;97532.09;;;23.78;nan
40850;BME280;26571;41.610;25.380;2023-03-25T13:07:13;97518.59;;;23.93;nan
40850;BME280;26571;41.610;25.380;2023-03-25T13:09:47;97516.44;;;23.95;nan
40850;BME280;26571;41.610;25.380;2023-03-25T13:17:29;97507.69;;;24.29;nan
40850;BME280;26571;41.610;25.380;2023-03-25T13:19:58;97506.34;;;24.37;nan
40850;BME280;26571;41.610;25.380;2023-03-25T13:22:26;97504.13;;;24.44;nan
40850;BME280;26571;41.610;25.380;2023-03-25T13:24:56;97499.91;;;24.28;nan
40850;BME280;26571;41.610;25.380;2023-03-25T13:27:23;97503.25;;;23.99;nan
40850;BME280;26571;41.610;25.380;2023-03-25T13:29:50;97496.38;;;23.78;nan
40850;BME280;26571;41.610;25.380;2023-03-25T13:32:33;97499.09;;;23.57;nan
40850;BME280;26571;41.610;25.380;2023-03-25T13:35:05;97496.66;;;23.51;nan
40850;BME280;26571;41.610;25.380;2023-03-25T13:37:33;97498.56;;;23.50;nan
40850;BME280;26571;41.610;25.380;2023-03-25T13:45:16;97478.69;;;23.41;nan
40850;BME280;26571;41.610;25.380;2023-03-25T13:47:42;97476.00;;;23.46;nan
40850;BME280;26571;41.610;25.380;2023-03-25T13:50:22;97473.06;;;23.42;nan
40850;BME280;26571;41.610;25.380;2023-03-25T13:52:48;97469.00;;;23.45;nan
40850;BME280;26571;41.610;25.380;2023-03-25T13:55:16;97465.03;;;23.37;nan
40850;BME280;26571;41.610;25.380;2023-03-25T14:10:52;97450.03;;;23.06;nan
40850;BME280;26571;41.610;25.380;2023-03-25T14:13:25;97449.75;;;23.07;nan
40850;BME280;26571;41.610;25.380;2023-03-25T14:15:59;97449.22;;;23.05;nan
40850;BME280;26571;41.610;25.380;2023-03-25T14:18:26;97440.38;;;23.00;nan
40850;BME280;26571;41.610;25.380;2023-03-25T14:20:56;97433.13;;;22.95;nan
40850;BME280;26571;41.610;25.380;2023-03-25T14:23:21;97443.06;;;22.94;nan
40850;BME280;26571;41.610;25.380;2023-03-25T14:25:48;97441.19;;;22.90;nan
40850;BME280;26571;41.610;25.380;2023-03-25T14:28:32;97442.28;;;22.89;nan
40850;BME280;26571;41.610;25.380;2023-03-25T14:31:08;97433.13;;;22.80;nan
40850;BME280;26571;41.610;25.380;2023-03-25T14:36:28;97435.53;;;22.71;nan
40850;BME280;26571;41.610;25.380;2023-03-25T14:38:54;97437.69;;;22.74;nan
40850;BME280;26571;41.610;25.380;2023-03-25T14:44:15;97430.72;;;22.78;nan
40850;BME280;26571;41.610;25.380;2023-03-25T14:46:42;97429.63;;;22.79;nan
40850;BME280;26571;41.610;25.380;2023-03-25T14:49:20;97432.59;;;22.78;nan
40850;BME280;26571;41.610;25.380;2023-03-25T14:51:55;97425.06;;;22.80;nan
40850;BME280;26571;41.610;25.380;2023-03-25T14:54:25;97424.53;;;22.83;nan
40850;BME280;26571;41.610;25.380;2023-03-25T14:57:12;97421.31;;;22.81;nan
40850;BME280;26571;41.610;25.380;2023-03-25T14:59:48;97421.84;;;22.78;nan
40850;BME280;26571;41.610;25.380;2023-03-25T15:02:15;97420.78;;;22.84;nan
40850;BME280;26571;41.610;25.380;2023-03-25T15:04:41;97404.69;;;22.94;nan
40850;BME280;26571;41.610;25.380;2023-03-25T15:07:13;97417.56;;;22.92;nan
40850;BME280;26571;41.610;25.380;2023-03-25T15:09:58;97411.13;;;22.88;nan
40850;BME280;26571;41.610;25.380;2023-03-25T15:12:24;97408.69;;;22.76;nan
40850;BME280;26571;41.610;25.380;2023-03-25T15:14:53;97412.47;;;22.70;nan
40850;BME280;26571;41.610;25.380;2023-03-25T15:22:34;97412.16;;;22.21;nan
40850;BME280;26571;41.610;25.380;2023-03-25T15:24:59;97414.78;;;22.05;nan
40850;BME280;26571;41.610;25.380;2023-03-25T15:30:13;97410.69;;;21.82;nan